Time;durP1;ratioP1;P1;durP2;ratioP2;P2;SDS_P1;SDS_P2;PMS_P1;PMS_P2;Temp;Humidity;BMP_temperature;BMP_pressure;BME280_temperature;BME280_humidity;BME280_pressure;Samples;Min_cycle;Max_cycle;Signal;HPM_P1;HPM_P2
2023/07/11 00:00:39;;;;;;;16.20;9.70;;;;;;;19.12;64.10;99658.45;218163;1256;139864;-71
2023/07/11 00:06:09;;;;;;;11.70;9.70;;;;;;;19.24;64.48;99651.42;218128;1256;140921;-79
2023/07/11 00:11:17;;;;;;;10.00;9.20;;;;;;;19.30;64.55;99649.46;217806;1259;140506;-78
2023/07/11 00:16:24;;;;;;;10.80;9.80;;;;;;;19.33;64.71;99648.72;218317;1257;140628;-76
2023/07/11 00:21:29;;;;;;;14.00;9.50;;;;;;;19.34;64.86;99653.84;218510;1256;140019;-73
2023/07/11 00:26:35;;;;;;;14.70;9.00;;;;;;;19.32;65.12;99649.05;218587;1256;139947;-73
2023/07/11 00:31:39;;;;;;;18.10;10.10;;;;;;;19.32;65.34;99644.64;218133;1259;139856;-74
2023/07/11 00:36:44;;;;;;;11.10;10.30;;;;;;;19.30;65.67;99641.90;217853;1257;140847;-72
2023/07/11 00:41:49;;;;;;;13.50;9.40;;;;;;;19.27;65.97;99644.65;218770;1256;140441;-73
2023/07/11 00:46:54;;;;;;;10.00;8.90;;;;;;;19.25;66.32;99649.02;219191;1256;141010;-75
2023/07/11 00:52:01;;;;;;;9.70;8.60;;;;;;;19.22;66.65;99655.56;218150;1257;140811;-72
2023/07/11 00:57:09;;;;;;;9.40;8.60;;;;;;;19.20;67.25;99657.81;219686;1256;140517;-72
2023/07/11 01:02:18;;;;;;;11.00;8.60;;;;;;;19.23;67.69;99658.02;217643;1256;140262;-68
2023/07/11 01:07:30;;;;;;;12.10;10.10;;;;;;;19.28;68.36;99653.88;219084;1257;140436;-74
2023/07/11 01:12:35;;;;;;;9.30;8.60;;;;;;;19.28;68.82;99657.77;220545;1256;142075;-73
2023/07/11 01:17:38;;;;;;;13.50;10.10;;;;;;;19.26;69.21;99658.52;220502;1256;139974;-71
2023/07/11 01:22:43;;;;;;;12.20;10.30;;;;;;;19.25;69.59;99665.93;220124;1256;141603;-71
2023/07/11 01:27:48;;;;;;;11.80;10.60;;;;;;;19.21;70.01;99651.73;218452;1256;140376;-73
2023/07/11 01:32:53;;;;;;;14.10;10.70;;;;;;;19.17;70.19;99652.02;218977;1257;140988;-80
2023/07/11 01:37:58;;;;;;;11.70;10.60;;;;;;;19.14;70.51;99651.34;218457;1256;140623;-75
2023/07/11 01:43:02;;;;;;;20.00;12.20;;;;;;;19.09;70.81;99652.82;219045;1257;141264;-76
2023/07/11 01:48:07;;;;;;;11.30;10.30;;;;;;;19.02;71.20;99658.96;218143;1260;140155;-74
2023/07/11 01:53:11;;;;;;;14.60;10.60;;;;;;;18.98;71.34;99666.96;218343;1258;140258;-76
2023/07/11 01:58:16;;;;;;;9.20;8.50;;;;;;;18.96;71.71;99668.15;218953;1256;140953;-74
2023/07/11 02:03:20;;;;;;;11.20;10.10;;;;;;;18.92;71.98;99672.20;217723;1257;140034;-71
2023/07/11 02:08:25;;;;;;;24.30;10.80;;;;;;;18.89;72.14;99674.29;217785;1257;141169;-71
2023/07/11 02:13:29;;;;;;;11.80;10.50;;;;;;;18.84;71.93;99676.52;217885;1257;141702;-78
2023/07/11 02:18:34;;;;;;;11.30;9.40;;;;;;;18.77;72.04;99673.73;217932;1259;142430;-72
2023/07/11 02:23:39;;;;;;;13.50;10.40;;;;;;;18.68;72.11;99676.21;218323;1256;140271;-71
2023/07/11 02:28:44;;;;;;;10.70;9.70;;;;;;;18.62;72.16;99686.46;217836;1259;140767;-82
2023/07/11 02:33:48;;;;;;;14.70;9.60;;;;;;;18.57;72.31;99696.11;218291;1256;140005;-80
2023/07/11 02:38:53;;;;;;;12.50;9.50;;;;;;;18.53;72.46;99703.27;217959;1256;140252;-81
2023/07/11 02:43:57;;;;;;;10.80;8.20;;;;;;;18.49;72.53;99702.35;218918;1257;140240;-81
2023/07/11 02:49:00;;;;;;;10.70;9.40;;;;;;;18.44;72.47;99704.34;218648;1256;141233;-79
2023/07/11 02:54:06;;;;;;;9.30;8.40;;;;;;;18.36;72.55;99697.41;217777;1257;140242;-80
2023/07/11 02:59:10;;;;;;;9.50;7.90;;;;;;;18.30;72.57;99696.52;218468;1257;139791;-80
2023/07/11 03:04:15;;;;;;;9.60;8.70;;;;;;;18.26;72.61;99704.77;218989;1256;140039;-70
2023/07/11 03:09:19;;;;;;;9.30;8.10;;;;;;;18.21;72.59;99710.10;220386;1256;139843;-70
2023/07/11 03:14:23;;;;;;;8.70;5.10;;;;;;;18.15;72.62;99712.53;220283;1256;140153;-71
2023/07/11 03:19:27;;;;;;;9.00;8.20;;;;;;;18.15;72.62;99719.86;220453;1256;140000;-69
2023/07/11 03:24:32;;;;;;;9.90;8.90;;;;;;;18.18;72.71;99722.21;218839;1257;155116;-67
2023/07/11 03:29:37;;;;;;;9.80;7.80;;;;;;;18.17;72.39;99723.89;219205;1256;140542;-66
2023/07/11 03:34:42;;;;;;;9.80;7.10;;;;;;;18.17;72.40;99727.67;219071;1256;140399;-67
2023/07/11 03:39:57;;;;;;;10.50;8.30;;;;;;;18.17;72.56;99733.44;218879;1256;140671;-68
2023/07/11 03:45:03;;;;;;;8.30;7.60;;;;;;;18.20;72.40;99742.92;218918;1256;140864;-69
2023/07/11 03:50:08;;;;;;;8.10;7.30;;;;;;;18.26;72.31;99746.97;218084;1256;140819;-67
2023/07/11 03:55:12;;;;;;;6.70;5.70;;;;;;;18.28;71.71;99742.09;218497;1256;139619;-68
2023/07/11 04:00:17;;;;;;;4.80;4.30;;;;;;;18.25;70.80;99738.55;217985;1256;139669;-68
2023/07/11 04:05:21;;;;;;;4.70;4.10;;;;;;;18.31;69.71;99744.06;218163;1257;221552;-75
2023/07/11 04:10:26;;;;;;;4.20;3.30;;;;;;;18.25;68.80;99752.53;218329;1259;140943;-70
2023/07/11 04:15:31;;;;;;;4.70;3.50;;;;;;;18.21;68.18;99761.73;217933;1257;142150;-67
2023/07/11 04:20:36;;;;;;;4.10;2.90;;;;;;;18.20;67.41;99772.39;217907;1257;234372;-73
2023/07/11 04:25:44;;;;;;;8.00;3.30;;;;;;;18.21;66.81;99777.39;218604;1259;139804;-72
2023/07/11 04:30:48;;;;;;;2.90;2.40;;;;;;;18.61;66.17;99773.87;217886;1257;139240;-73
2023/07/11 04:35:54;;;;;;;3.20;2.90;;;;;;;19.72;64.88;99775.79;218452;1257;140626;-71
2023/07/11 04:41:02;;;;;;;5.40;3.20;;;;;;;20.10;63.85;99787.16;218354;1256;141451;-68
2023/07/11 04:46:07;;;;;;;5.60;3.40;;;;;;;20.43;62.71;99800.78;218306;1257;140394;-71
2023/07/11 04:51:13;;;;;;;3.10;2.70;;;;;;;21.41;61.10;99805.39;218540;1256;141128;-71
2023/07/11 04:56:16;;;;;;;2.80;2.60;;;;;;;21.98;59.65;99811.86;218088;1256;140557;-68
2023/07/11 05:01:21;;;;;;;7.00;2.70;;;;;;;22.29;58.50;99809.32;218897;1256;139948;-69
2023/07/11 05:06:26;;;;;;;2.50;2.20;;;;;;;22.41;57.37;99816.98;218567;1256;138666;-72
2023/07/11 05:11:31;;;;;;;2.20;2.00;;;;;;;22.61;56.90;99835.56;220440;1256;139579;-74
2023/07/11 05:16:35;;;;;;;2.50;2.30;;;;;;;24.45;54.53;99844.04;220558;1256;139548;-72
2023/07/11 05:21:41;;;;;;;4.80;2.50;;;;;;;27.91;50.96;99855.63;220558;1256;139892;-71
2023/07/11 05:26:46;;;;;;;2.30;2.10;;;;;;;30.94;47.01;99872.33;220531;1257;141179;-71
2023/07/11 05:31:51;;;;;;;2.40;2.20;;;;;;;33.61;42.84;99888.24;218375;1257;139014;-72
2023/07/11 05:36:56;;;;;;;1.60;1.50;;;;;;;35.68;39.85;99898.92;218934;1257;138570;-69
2023/07/11 05:42:02;;;;;;;1.10;1.10;;;;;;;37.46;36.66;99901.77;218361;1257;139510;-73
2023/07/11 05:47:08;;;;;;;1.10;1.00;;;;;;;38.96;34.26;99908.09;218933;1257;139354;-70
2023/07/11 05:52:12;;;;;;;1.20;1.20;;;;;;;40.22;31.99;99918.36;218453;1257;139358;-72
2023/07/11 05:57:18;;;;;;;1.90;1.30;;;;;;;41.09;29.91;99917.66;217890;1257;139972;-72
2023/07/11 06:02:21;;;;;;;2.40;1.30;;;;;;;41.47;28.38;99919.41;218040;1259;139588;-73
2023/07/11 06:07:30;;;;;;;1.60;1.50;;;;;;;42.12;27.45;99921.14;217875;1257;139160;-80
2023/07/11 06:12:34;;;;;;;2.10;1.90;;;;;;;42.42;26.35;99909.45;217591;1260;139213;-75
2023/07/11 06:17:38;;;;;;;1.60;1.50;;;;;;;42.41;25.51;99906.85;217935;1257;139475;-75
2023/07/11 06:22:43;;;;;;;1.30;1.20;;;;;;;42.49;24.98;99903.23;217799;1257;139767;-74
2023/07/11 06:27:48;;;;;;;2.30;1.10;;;;;;;42.29;24.29;99896.48;217742;1257;139687;-72
2023/07/11 06:32:52;;;;;;;4.20;1.20;;;;;;;42.39;23.82;99891.36;217712;1257;139571;-71
2023/07/11 06:37:57;;;;;;;1.10;1.00;;;;;;;42.54;23.20;99885.16;217924;1259;140008;-69
2023/07/11 06:43:02;;;;;;;1.30;1.30;;;;;;;42.10;23.11;99874.46;218436;1257;140142;-70
2023/07/11 06:48:07;;;;;;;1.50;1.40;;;;;;;42.13;23.08;99879.57;217810;1257;139416;-73
2023/07/11 06:53:15;;;;;;;5.10;1.10;;;;;;;41.39;22.97;99886.86;219407;1256;138822;-75
2023/07/11 06:58:21;;;;;;;1.10;1.00;;;;;;;40.81;23.22;99894.95;217819;1257;140033;-70
2023/07/11 07:03:27;;;;;;;1.40;1.20;;;;;;;40.72;22.89;99894.66;219068;1256;139889;-71
2023/07/11 07:08:32;;;;;;;1.50;1.40;;;;;;;40.68;22.98;99899.72;217910;1257;139939;-70
2023/07/11 07:13:36;;;;;;;0.90;0.80;;;;;;;41.15;22.97;99905.79;220381;1257;138940;-72
2023/07/11 07:18:48;;;;;;;3.20;1.20;;;;;;;41.14;22.63;99909.33;218382;1257;139663;-72
2023/07/11 07:23:52;;;;;;;0.90;0.90;;;;;;;40.93;22.80;99905.29;219885;1257;139561;-69
2023/07/11 07:28:56;;;;;;;0.90;0.90;;;;;;;40.60;23.00;99905.50;219545;1256;140091;-70
2023/07/11 07:34:01;;;;;;;5.20;1.90;;;;;;;39.93;23.03;99905.50;219854;1256;140181;-68
2023/07/11 07:39:07;;;;;;;0.90;0.90;;;;;;;38.84;23.18;99903.89;219386;1257;138837;-73
2023/07/11 07:44:13;;;;;;;0.90;0.80;;;;;;;37.84;23.79;99899.02;218808;1259;139601;-67
2023/07/11 07:49:17;;;;;;;6.40;1.00;;;;;;;37.01;24.66;99897.98;218210;1256;139103;-69
2023/07/11 07:54:21;;;;;;;2.40;0.90;;;;;;;36.32;25.65;99904.52;217641;1256;139196;-67
2023/07/11 07:59:25;;;;;;;1.40;1.30;;;;;;;35.64;26.10;99907.92;218486;1256;139337;-67
2023/07/11 08:04:30;;;;;;;1.00;1.00;;;;;;;35.04;26.74;99906.05;218100;1257;138611;-66
2023/07/11 08:09:37;;;;;;;7.50;1.40;;;;;;;34.40;27.42;99906.64;217612;1257;140282;-67
2023/07/11 08:14:42;;;;;;;1.30;1.20;;;;;;;34.10;27.60;99911.50;217553;1259;140507;-67
2023/07/11 08:19:48;;;;;;;23.70;2.90;;;;;;;33.55;27.84;99915.36;218589;1256;138913;-67
2023/07/11 08:24:53;;;;;;;1.50;1.40;;;;;;;33.06;28.34;99910.70;218126;1259;142397;-71
2023/07/11 08:29:58;;;;;;;1.20;1.20;;;;;;;32.98;29.12;99913.33;217935;1257;139107;-72
2023/07/11 08:35:02;;;;;;;1.30;1.10;;;;;;;33.12;29.41;99912.65;218471;1259;140523;-74
2023/07/11 08:40:07;;;;;;;;;;;;;;;32.95;29.25;99913.06;218987;1257;139626;-71
2023/07/11 08:45:21;;;;;;;;;;;;;;;32.66;29.92;99903.84;219158;1257;125906;-73
2023/07/11 08:50:33;;;;;;;3.80;1.40;;;;;;;32.49;29.83;99897.83;220692;1256;137350;-73
2023/07/11 08:55:47;;;;;;;3.00;1.50;;;;;;;32.44;29.93;99892.25;218150;1257;140388;-71
2023/07/11 09:00:52;;;;;;;2.00;1.80;;;;;;;32.52;29.73;99892.73;218118;1259;139049;-72
2023/07/11 09:06:07;;;;;;;2.30;2.10;;;;;;;32.46;29.75;99895.19;219543;1256;139215;-72
2023/07/11 09:11:25;;;;;;;2.00;1.80;;;;;;;32.29;29.64;99901.77;217634;1260;140705;-74
2023/07/11 09:16:33;;;;;;;2.00;1.90;;;;;;;31.43;29.83;99907.66;220562;1257;139366;-74
2023/07/11 09:22:21;;;;;;;3.00;2.20;;;;;;;30.64;30.93;99906.92;220249;1257;139466;-73
2023/07/11 09:27:36;;;;;;;24.20;5.40;;;;;;;30.61;32.03;99899.96;219340;1260;140168;-73
2023/07/11 09:32:41;;;;;;;10.20;3.40;;;;;;;30.93;31.70;99898.82;217929;1257;139154;-72
2023/07/11 09:37:50;;;;;;;1.80;1.70;;;;;;;30.56;31.54;99900.02;218151;1257;139385;-73
2023/07/11 09:42:56;;;;;;;2.00;1.80;;;;;;;30.26;32.39;99897.15;218340;1257;141194;-73
2023/07/11 09:48:13;;;;;;;2.10;1.90;;;;;;;30.52;32.36;99891.14;218410;1257;140290;-72
2023/07/11 09:53:26;;;;;;;2.40;2.30;;;;;;;30.35;32.06;99895.92;218698;1262;140255;-72
2023/07/11 09:58:33;;;;;;;2.10;1.90;;;;;;;29.89;32.11;99893.94;217597;1259;139161;-72
2023/07/11 10:03:37;;;;;;;2.50;2.10;;;;;;;29.56;33.03;99887.95;217581;1257;139970;-72
2023/07/11 10:08:47;;;;;;;2.50;2.30;;;;;;;30.00;33.13;99886.15;218182;1257;140817;-71
2023/07/11 10:13:57;;;;;;;6.30;2.50;;;;;;;30.34;32.98;99890.95;217750;1257;139761;-72
2023/07/11 10:19:02;;;;;;;4.60;2.30;;;;;;;30.08;32.63;99897.17;217998;1256;138739;-72
2023/07/11 10:24:17;;;;;;;2.50;2.30;;;;;;;30.37;32.49;99884.17;217765;1258;139301;-72
2023/07/11 10:29:37;;;;;;;14.70;5.90;;;;;;;30.57;32.10;99884.94;217769;1260;139557;-72
2023/07/11 10:34:50;;;;;;;3.30;3.00;;;;;;;30.12;32.45;99876.98;217740;1260;233912;-71
2023/07/11 10:40:24;;;;;;;2.40;2.20;;;;;;;29.81;32.99;99876.40;218183;1257;531882;-72
2023/07/11 10:45:37;;;;;;;2.90;2.00;;;;;;;29.69;33.31;99874.41;219092;1260;138900;-72
2023/07/11 10:50:47;;;;;;;7.10;3.60;;;;;;;29.91;33.96;99865.94;217730;1260;139607;-72
2023/07/11 10:56:00;;;;;;;2.80;2.50;;;;;;;29.57;33.46;99870.30;219407;1258;139491;-73
2023/07/11 11:01:24;;;;;;;3.30;2.50;;;;;;;29.84;34.02;99866.57;218521;1257;140341;-72
2023/07/11 11:07:03;;;;;;;5.10;2.60;;;;;;;30.21;33.93;99858.16;219582;1260;139385;-73
2023/07/11 11:12:35;;;;;;;5.50;3.50;;;;;;;30.57;33.59;99856.89;218936;1257;139581;-73
2023/07/11 11:17:59;;;;;;;2.90;2.40;;;;;;;30.57;33.63;99856.88;220529;1257;139733;-73
2023/07/11 11:23:23;;;;;;;2.90;2.60;;;;;;;30.05;32.68;99852.24;220478;1256;141482;-73
2023/07/11 11:28:42;;;;;;;4.70;2.90;;;;;;;30.11;33.13;99850.02;220025;1257;139158;-72
2023/07/11 11:34:09;;;;;;;4.80;3.00;;;;;;;29.71;33.53;99853.27;219927;1256;139982;-72
2023/07/11 11:39:52;;;;;;;3.10;2.40;;;;;;;29.81;34.16;99846.56;217985;1261;140339;-72
2023/07/11 11:45:04;;;;;;;2.80;2.20;;;;;;;30.17;34.38;99834.77;218421;1259;140140;-72
2023/07/11 11:50:15;;;;;;;2.70;2.50;;;;;;;29.92;33.75;99826.94;217699;1260;139903;-73
2023/07/11 11:55:37;;;;;;;6.00;2.70;;;;;;;29.48;34.08;99831.72;218303;1256;139251;-71
2023/07/11 12:00:47;;;;;;;23.90;4.00;;;;;;;29.13;33.91;99827.15;218361;1257;140358;-71
2023/07/11 12:05:53;;;;;;;6.70;2.60;;;;;;;29.25;34.74;99815.89;218064;1260;139238;-71
2023/07/11 12:11:10;;;;;;;2.30;2.10;;;;;;;29.68;34.51;99811.05;217950;1261;139759;-72
2023/07/11 12:16:22;;;;;;;2.40;2.20;;;;;;;29.97;33.54;99810.39;218072;1260;140129;-73
2023/07/11 12:21:45;;;;;;;2.10;1.60;;;;;;;30.20;33.01;99816.91;217711;1257;139202;-73
2023/07/11 12:26:50;;;;;;;;;;;;;;;30.40;32.75;99808.77;218019;1257;141039;-74
2023/07/11 12:32:32;;;;;;;2.30;2.10;;;;;;;30.64;32.08;99807.48;218410;1256;125348;-73
2023/07/11 12:37:49;;;;;;;2.20;2.00;;;;;;;30.76;31.25;99807.00;218334;1260;140954;-67
2023/07/11 12:42:55;;;;;;;2.60;2.40;;;;;;;30.83;31.16;99799.58;219282;1258;140124;-67
2023/07/11 12:48:12;;;;;;;2.90;2.40;;;;;;;30.62;30.97;99801.96;218074;1260;141583;-66
2023/07/11 12:53:16;;;;;;;2.30;2.10;;;;;;;30.59;30.84;99804.66;218017;1257;139804;-66
2023/07/11 12:58:25;;;;;;;3.80;2.20;;;;;;;30.21;30.81;99797.58;218688;1258;141814;-67
2023/07/11 13:03:34;;;;;;;10.70;3.80;;;;;;;29.82;31.23;99798.77;219670;1257;139796;-66
2023/07/11 13:08:40;;;;;;;7.00;2.80;;;;;;;29.44;31.67;99793.90;220499;1256;140237;-66
2023/07/11 13:13:47;;;;;;;2.60;2.30;;;;;;;29.49;32.27;99798.73;220523;1256;139953;-66
2023/07/11 13:18:52;;;;;;;3.10;2.90;;;;;;;29.52;32.28;99791.27;220700;1257;139833;-79
2023/07/11 13:24:00;;;;;;;2.60;2.30;;;;;;;29.64;32.21;99792.84;219417;1256;141238;-72
2023/07/11 13:29:07;;;;;;;2.80;2.60;;;;;;;29.59;32.04;99794.23;219002;1257;139242;-75
2023/07/11 13:34:26;;;;;;;2.40;2.20;;;;;;;29.25;32.40;99790.00;218672;1258;139689;-70
2023/07/11 13:39:34;;;;;;;4.60;2.80;;;;;;;28.89;32.67;99784.30;217953;1257;140184;-67
2023/07/11 13:44:50;;;;;;;2.50;2.30;;;;;;;28.61;32.88;99781.10;219697;1257;139449;-68
2023/07/11 13:50:15;;;;;;;2.80;2.60;;;;;;;28.82;32.69;99781.78;220092;1257;138951;-69
2023/07/11 13:55:42;;;;;;;3.00;2.20;;;;;;;29.08;32.75;99784.76;217859;1258;139071;-74
2023/07/11 14:00:51;;;;;;;4.40;1.90;;;;;;;29.34;32.34;99783.06;219247;1257;141354;-69
2023/07/11 14:06:00;;;;;;;2.70;2.50;;;;;;;29.56;32.84;99782.32;218090;1260;139957;-66
2023/07/11 14:11:11;;;;;;;1.80;1.70;;;;;;;29.77;32.68;99782.91;217989;1257;139962;-73
2023/07/11 14:16:17;;;;;;;2.00;1.90;;;;;;;29.89;32.03;99776.54;218223;1257;140371;-68
2023/07/11 14:21:21;;;;;;;;;;;;;;;29.93;31.71;99780.87;218008;1257;139187;-72
2023/07/11 14:26:25;;;;;;;4.80;2.60;;;;;;;29.96;31.88;99775.90;219000;1257;125568;-70
2023/07/11 14:31:28;;;;;;;2.40;2.20;;;;;;;30.07;31.81;99771.80;219128;1258;139070;-74
2023/07/11 14:36:33;;;;;;;5.20;2.20;;;;;;;30.03;31.90;99777.92;217746;1260;140885;-71
2023/07/11 14:41:37;;;;;;;2.40;2.30;;;;;;;29.76;31.74;99778.55;219347;1259;139632;-73
2023/07/11 14:46:53;;;;;;;2.80;2.60;;;;;;;29.70;31.72;99772.08;219710;1256;139570;-76
2023/07/11 14:51:57;;;;;;;3.50;2.70;;;;;;;29.73;31.49;99767.59;218114;1256;139693;-72
2023/07/11 14:57:02;;;;;;;2.40;2.20;;;;;;;29.79;31.61;99765.77;219272;1256;140222;-71
2023/07/11 15:02:29;;;;;;;2.40;2.30;;;;;;;29.86;31.67;99761.88;220182;1256;139334;-68
2023/07/11 15:07:36;;;;;;;5.80;2.50;;;;;;;29.84;31.24;99762.24;220316;1255;161693;-68
2023/07/11 15:12:51;;;;;;;3.50;3.20;;;;;;;29.78;30.53;99761.17;220658;1256;140194;-68
2023/07/11 15:18:18;;;;;;;3.80;3.50;;;;;;;29.70;30.62;99755.44;220463;1256;141137;-66
2023/07/11 15:23:23;;;;;;;5.50;2.80;;;;;;;29.62;30.14;99758.10;219619;1256;139592;-65
2023/07/11 15:28:27;;;;;;;3.70;3.30;;;;;;;29.53;30.37;99756.35;217772;1257;139729;-65
2023/07/11 15:33:50;;;;;;;3.10;2.60;;;;;;;29.53;30.47;99753.91;218410;1257;139587;-69
2023/07/11 15:38:53;;;;;;;4.90;2.60;;;;;;;29.51;30.44;99749.01;220268;1256;139650;-66
2023/07/11 15:43:59;;;;;;;1.90;1.80;;;;;;;29.37;30.66;99747.67;218959;1256;139101;-66
2023/07/11 15:49:04;;;;;;;4.70;2.30;;;;;;;29.21;30.41;99749.52;218572;1255;139614;-65
2023/07/11 15:54:11;;;;;;;2.70;1.90;;;;;;;29.02;30.79;99754.68;218999;1256;139895;-65
2023/07/11 15:59:34;;;;;;;3.40;2.30;;;;;;;28.97;31.08;99750.41;217945;1257;139263;-67
2023/07/11 16:04:40;;;;;;;2.50;2.30;;;;;;;28.87;30.83;99750.47;217776;1257;139556;-68
2023/07/11 16:09:49;;;;;;;2.50;2.30;;;;;;;28.82;30.82;99748.85;218395;1256;140487;-65
2023/07/11 16:14:56;;;;;;;2.50;1.90;;;;;;;28.76;30.49;99746.27;217950;1257;139885;-65
2023/07/11 16:19:59;;;;;;;3.30;1.90;;;;;;;28.64;30.49;99745.27;218718;1256;139591;-65
2023/07/11 16:25:09;;;;;;;2.90;2.20;;;;;;;28.49;30.98;99743.02;218118;1258;140549;-68
2023/07/11 16:30:18;;;;;;;3.60;2.30;;;;;;;28.33;31.23;99746.80;219267;1256;139710;-65
2023/07/11 16:35:33;;;;;;;3.40;2.00;;;;;;;28.21;31.36;99744.19;218470;1256;139601;-72
2023/07/11 16:40:39;;;;;;;2.80;2.30;;;;;;;28.15;31.68;99744.48;219569;1255;140173;-67
2023/07/11 16:45:52;;;;;;;2.60;2.00;;;;;;;28.05;31.52;99738.20;219289;1256;139780;-66
2023/07/11 16:51:02;;;;;;;2.90;2.20;;;;;;;27.93;31.72;99734.12;218512;1256;139223;-67
2023/07/11 16:56:09;;;;;;;2.30;2.20;;;;;;;27.81;32.20;99733.79;220574;1256;139861;-66
2023/07/11 17:01:19;;;;;;;2.30;2.10;;;;;;;27.69;32.01;99736.51;220635;1255;139603;-67
2023/07/11 17:06:30;;;;;;;2.40;2.20;;;;;;;27.60;31.95;99745.30;220547;1256;139659;-67
2023/07/11 17:11:33;;;;;;;2.80;2.40;;;;;;;27.54;32.17;99743.48;220428;1256;140748;-67
2023/07/11 17:16:51;;;;;;;3.00;2.20;;;;;;;27.46;32.43;99740.92;219144;1256;139795;-67
2023/07/11 17:21:57;;;;;;;2.40;2.20;;;;;;;27.35;32.42;99742.38;219093;1255;139424;-68
2023/07/11 17:27:00;;;;;;;2.70;2.10;;;;;;;27.20;32.45;99736.63;218745;1257;139034;-64
2023/07/11 17:32:18;;;;;;;2.00;1.90;;;;;;;27.06;32.73;99734.80;218575;1257;140428;-64
2023/07/11 17:37:35;;;;;;;1.90;1.80;;;;;;;26.88;33.72;99732.66;219196;1256;140254;-68
2023/07/11 17:42:39;;;;;;;10.20;2.30;;;;;;;26.68;34.44;99728.88;218460;1256;139744;-67
2023/07/11 17:47:42;;;;;;;3.10;2.30;;;;;;;26.50;34.72;99730.59;217742;1256;140724;-67
2023/07/11 17:53:06;;;;;;;6.30;2.50;;;;;;;26.32;35.33;99729.51;217960;1256;139769;-68
2023/07/11 17:58:36;;;;;;;2.80;2.60;;;;;;;26.11;36.27;99728.45;218136;1257;139931;-65
2023/07/11 18:03:43;;;;;;;2.00;1.90;;;;;;;25.81;36.80;99728.20;218127;1259;139964;-63
2023/07/11 18:08:50;;;;;;;2.90;2.30;;;;;;;25.54;37.53;99728.63;218069;1257;139411;-63
2023/07/11 18:13:56;;;;;;;3.90;2.70;;;;;;;25.25;37.93;99728.21;218526;1256;139329;-65
2023/07/11 18:19:12;;;;;;;15.30;3.30;;;;;;;24.94;38.58;99732.38;217543;1256;139816;-66
2023/07/11 18:24:37;;;;;;;5.40;2.30;;;;;;;24.61;39.26;99735.59;219893;1256;140629;-65
2023/07/11 18:30:16;;;;;;;8.30;2.80;;;;;;;24.30;40.32;99738.72;218444;1256;139016;-64
2023/07/11 18:35:38;;;;;;;2.40;2.20;;;;;;;23.98;41.09;99742.45;218848;1257;139487;-66
2023/07/11 18:40:46;;;;;;;2.90;2.40;;;;;;;23.70;41.89;99746.68;219110;1255;139770;-66
2023/07/11 18:45:54;;;;;;;2.90;2.60;;;;;;;23.44;42.28;99743.36;219243;1257;139883;-66
2023/07/11 18:51:19;;;;;;;7.10;3.30;;;;;;;23.14;42.64;99748.63;219781;1256;141486;-67
2023/07/11 18:56:29;;;;;;;3.20;2.20;;;;;;;22.83;43.40;99747.73;220194;1256;140064;-66
2023/07/11 19:01:44;;;;;;;2.30;2.10;;;;;;;22.52;44.01;99749.06;219971;1256;140341;-66
2023/07/11 19:07:03;;;;;;;3.10;2.30;;;;;;;22.17;45.35;99751.73;220117;1255;140025;-64
2023/07/11 19:12:23;;;;;;;1.90;1.80;;;;;;;21.90;46.18;99752.52;220465;1255;140157;-64
2023/07/11 19:17:41;;;;;;;8.70;2.80;;;;;;;21.59;46.86;99756.48;219524;1256;140668;-68
2023/07/11 19:22:58;;;;;;;2.70;2.50;;;;;;;21.35;47.21;99754.59;218995;1256;245738;-67
2023/07/11 19:28:39;;;;;;;4.50;2.60;;;;;;;20.96;47.39;99751.34;219182;1256;140452;-66
2023/07/11 19:34:03;;;;;;;8.10;3.20;;;;;;;20.62;48.34;99752.20;217787;1256;139591;-64
2023/07/11 19:39:14;;;;;;;7.80;3.10;;;;;;;20.30;48.64;99750.49;217701;1256;141854;-63
2023/07/11 19:44:29;;;;;;;8.10;3.10;;;;;;;20.07;49.31;99756.42;218536;1256;139272;-66
2023/07/11 19:49:37;;;;;;;6.60;3.80;;;;;;;19.80;49.67;99757.30;217779;1258;139080;-66
2023/07/11 19:54:47;;;;;;;6.40;3.30;;;;;;;19.60;50.27;99760.16;217954;1257;139186;-66
2023/07/11 19:59:55;;;;;;;5.00;3.00;;;;;;;19.36;50.76;99758.27;218755;1256;139056;-67
2023/07/11 20:05:00;;;;;;;6.00;3.50;;;;;;;18.98;51.25;99759.46;218532;1256;141355;-68
2023/07/11 20:10:27;;;;;;;7.40;3.30;;;;;;;18.68;52.11;99758.36;218318;1257;139561;-68
2023/07/11 20:15:37;;;;;;;5.20;3.20;;;;;;;18.52;52.90;99762.41;217583;1257;139263;-69
2023/07/11 20:20:41;;;;;;;6.00;3.60;;;;;;;18.41;53.33;99759.16;218096;1257;139654;-69
2023/07/11 20:25:52;;;;;;;3.20;2.90;;;;;;;18.28;53.49;99754.40;218380;1257;139674;-65
2023/07/11 20:30:57;;;;;;;13.10;4.10;;;;;;;18.07;53.92;99753.56;219344;1256;140385;-69
2023/07/11 20:36:23;;;;;;;8.90;3.20;;;;;;;17.91;54.54;99754.78;217971;1257;139831;-66
2023/07/11 20:41:37;;;;;;;6.20;3.30;;;;;;;17.75;55.14;99755.59;220525;1256;140153;-69
2023/07/11 20:46:46;;;;;;;9.70;4.20;;;;;;;17.58;55.50;99756.07;219187;1256;139170;-68
2023/07/11 20:51:53;;;;;;;7.30;4.30;;;;;;;17.57;56.07;99759.80;220584;1256;139071;-66
2023/07/11 20:56:59;;;;;;;9.90;4.00;;;;;;;17.54;56.62;99756.69;220422;1256;140905;-67
2023/07/11 21:02:12;;;;;;;20.30;4.00;;;;;;;17.47;56.84;99758.67;220425;1256;139501;-67
2023/07/11 21:07:16;;;;;;;6.40;2.90;;;;;;;17.24;56.93;99747.66;220572;1256;139593;-67
2023/07/11 21:12:20;;;;;;;6.30;4.00;;;;;;;16.95;57.60;99742.63;219618;1256;139372;-68
2023/07/11 21:17:27;;;;;;;12.40;5.50;;;;;;;16.69;58.16;99734.06;218333;1255;140360;-70
2023/07/11 21:22:31;;;;;;;16.20;6.60;;;;;;;16.44;58.66;99725.14;219145;1255;139248;-68
2023/07/11 21:27:36;;;;;;;15.70;5.90;;;;;;;16.26;59.42;99717.20;219735;1255;140424;-71
2023/07/11 21:32:40;;;;;;;14.40;4.90;;;;;;;16.19;59.94;99709.65;218080;1257;140575;-66
2023/07/11 21:37:45;;;;;;;8.00;4.70;;;;;;;16.17;60.30;99701.59;218850;1256;140386;-67
2023/07/11 21:42:51;;;;;;;7.90;4.40;;;;;;;16.01;60.38;99695.53;218341;1255;140228;-67
2023/07/11 21:47:56;;;;;;;14.00;4.50;;;;;;;15.88;60.62;99693.61;218654;1257;161732;-67
2023/07/11 21:53:01;;;;;;;9.00;4.60;;;;;;;15.71;60.99;99686.20;217643;1256;140066;-66
2023/07/11 21:58:16;;;;;;;10.50;5.40;;;;;;;15.57;61.14;99672.88;218169;1257;140022;-66
2023/07/11 22:03:26;;;;;;;9.70;4.40;;;;;;;15.43;61.43;99661.23;218644;1256;140282;-65
2023/07/11 22:08:34;;;;;;;6.30;4.80;;;;;;;15.29;61.92;99649.73;217656;1257;223289;-66
2023/07/11 22:13:38;;;;;;;11.50;4.70;;;;;;;15.23;62.25;99650.12;218154;1257;140126;-66
2023/07/11 22:18:43;;;;;;;8.60;4.30;;;;;;;15.14;62.28;99639.90;219332;1257;141047;-67
2023/07/11 22:23:48;;;;;;;4.00;3.70;;;;;;;15.06;62.61;99627.20;218968;1256;140300;-68
2023/07/11 22:28:53;;;;;;;8.00;4.60;;;;;;;14.97;62.72;99620.33;219547;1257;141116;-66
2023/07/11 22:33:58;;;;;;;10.20;4.40;;;;;;;14.86;62.83;99614.95;218439;1257;140865;-67
2023/07/11 22:39:02;;;;;;;4.60;4.20;;;;;;;14.76;63.31;99609.86;219281;1256;396823;-69
2023/07/11 22:44:07;;;;;;;8.00;4.90;;;;;;;14.67;63.68;99610.92;220093;1256;140201;-68
2023/07/11 22:49:11;;;;;;;10.80;4.70;;;;;;;14.59;64.05;99600.88;220480;1256;140191;-71
2023/07/11 22:54:15;;;;;;;7.30;4.50;;;;;;;14.50;64.22;99592.58;220333;1256;142426;-69
2023/07/11 22:59:19;;;;;;;6.70;4.20;;;;;;;14.41;64.63;99587.44;219534;1256;139873;-69
2023/07/11 23:04:23;;;;;;;8.10;4.90;;;;;;;14.35;64.88;99583.06;219561;1256;140413;-68
2023/07/11 23:09:28;;;;;;;5.70;4.20;;;;;;;14.27;65.14;99579.02;219710;1256;141024;-68
2023/07/11 23:14:34;;;;;;;6.60;4.90;;;;;;;14.20;65.47;99588.64;218429;1256;140378;-66
2023/07/11 23:19:39;;;;;;;12.20;5.90;;;;;;;14.15;65.71;99589.30;218714;1260;140240;-65
2023/07/11 23:24:43;;;;;;;5.60;4.60;;;;;;;14.15;65.82;99596.23;219053;1257;141489;-65
2023/07/11 23:29:50;;;;;;;10.50;5.20;;;;;;;14.08;65.88;99609.16;218331;1257;140122;-66
2023/07/11 23:34:55;;;;;;;9.20;4.40;;;;;;;14.04;66.06;99631.04;217901;1257;140211;-65
2023/07/11 23:40:00;;;;;;;8.70;5.00;;;;;;;13.98;66.42;99654.52;217762;1257;140737;-68